createdAt,value
2022-10-10T00:01:32.478Z,17.13
2022-10-10T00:04:01.439Z,16.98
2022-10-10T00:06:33.051Z,17.16
2022-10-10T00:09:02.210Z,17.19
2022-10-10T00:11:30.607Z,17.22
2022-10-10T00:14:00.725Z,17.23
2022-10-10T00:16:29.115Z,17.23
2022-10-10T00:18:57.423Z,17.21
2022-10-10T00:21:25.682Z,17.18
2022-10-10T00:23:53.999Z,17.16
2022-10-10T00:26:22.695Z,17.11
2022-10-10T00:28:50.937Z,17.08
2022-10-10T00:31:20.688Z,17.07
2022-10-10T00:33:49.345Z,17.05
2022-10-10T00:36:20.566Z,17.06
2022-10-10T00:38:49.426Z,16.96
2022-10-10T00:41:17.694Z,17.03
2022-10-10T00:44:05.133Z,16.99
2022-10-10T00:46:34.913Z,16.96
2022-10-10T00:49:05.233Z,16.90
2022-10-10T00:51:33.846Z,16.88
2022-10-10T00:54:07.104Z,16.90
2022-10-10T00:56:41.223Z,16.88
2022-10-10T00:59:12.661Z,16.85
2022-10-10T01:01:43.943Z,16.83
2022-10-10T01:04:34.338Z,16.81
2022-10-10T01:07:04.220Z,16.74
2022-10-10T01:09:33.629Z,16.75
2022-10-10T01:12:14.692Z,16.74
2022-10-10T01:14:51.078Z,16.72
2022-10-10T01:17:30.236Z,16.69
2022-10-10T01:20:22.701Z,16.67
2022-10-10T01:23:09.139Z,16.64
2022-10-10T01:25:48.158Z,16.67
2022-10-10T01:28:35.256Z,16.67
2022-10-10T01:31:07.443Z,16.71
2022-10-10T01:33:43.420Z,16.76
2022-10-10T01:36:20.504Z,16.75
2022-10-10T01:38:57.506Z,16.76
2022-10-10T01:41:32.684Z,16.77
2022-10-10T01:44:02.442Z,16.73
2022-10-10T01:46:30.639Z,16.69
2022-10-10T01:49:00.127Z,16.73
2022-10-10T01:51:46.884Z,16.75
2022-10-10T01:54:29.580Z,16.70
2022-10-10T01:57:05.908Z,16.65
2022-10-10T01:59:47.839Z,16.64
2022-10-10T02:02:24.741Z,16.64
2022-10-10T02:05:01.937Z,16.51
2022-10-10T02:07:34.547Z,16.69
2022-10-10T02:10:06.208Z,16.68
2022-10-10T02:12:36.998Z,16.67
2022-10-10T02:15:11.890Z,16.54
2022-10-10T02:17:42.202Z,16.59
2022-10-10T02:20:13.044Z,16.56
2022-10-10T02:22:44.353Z,16.55
2022-10-10T02:25:14.675Z,16.55
2022-10-10T02:27:48.059Z,16.57
2022-10-10T02:30:19.787Z,16.57
2022-10-10T02:32:50.633Z,16.57
2022-10-10T02:35:32.041Z,16.58
2022-10-10T02:38:03.067Z,16.56
2022-10-10T02:40:35.662Z,16.45
2022-10-10T02:43:07.362Z,16.49
2022-10-10T02:45:37.221Z,16.47
2022-10-10T02:48:06.579Z,16.49
2022-10-10T02:50:35.613Z,16.49
2022-10-10T02:53:03.938Z,16.49
2022-10-10T02:55:32.227Z,16.49
2022-10-10T02:58:00.558Z,16.51
2022-10-10T03:00:28.800Z,16.53
2022-10-10T03:02:58.446Z,16.54
2022-10-10T03:05:26.816Z,16.50
2022-10-10T03:07:55.140Z,16.34
2022-10-10T03:10:23.467Z,16.42
2022-10-10T03:12:52.001Z,16.31
2022-10-10T03:15:20.575Z,16.37
2022-10-10T03:17:48.842Z,16.36
2022-10-10T03:20:18.688Z,16.40
2022-10-10T03:22:46.936Z,16.41
2022-10-10T03:25:15.244Z,16.44
2022-10-10T03:27:43.557Z,16.47
2022-10-10T03:30:13.087Z,16.48
2022-10-10T03:32:41.627Z,16.46
2022-10-10T03:35:10.941Z,16.44
2022-10-10T03:37:40.704Z,16.45
2022-10-10T03:40:10.610Z,16.41
2022-10-10T03:42:38.904Z,16.44
2022-10-10T03:45:07.845Z,16.40
2022-10-10T03:47:36.200Z,16.36
2022-10-10T03:50:04.980Z,16.32
2022-10-10T03:52:33.260Z,16.33
2022-10-10T03:55:02.987Z,16.37
2022-10-10T03:57:31.235Z,16.37
2022-10-10T03:59:59.513Z,16.37
2022-10-10T04:02:27.723Z,16.10
2022-10-10T04:04:55.993Z,16.31
2022-10-10T04:07:24.261Z,16.27
2022-10-10T04:09:53.883Z,16.25
2022-10-10T04:12:23.582Z,16.21
2022-10-10T04:14:51.896Z,16.22
2022-10-10T04:17:20.170Z,16.24
2022-10-10T04:19:48.525Z,16.26
2022-10-10T04:22:17.642Z,16.29
2022-10-10T04:24:45.905Z,16.27
2022-10-10T04:27:14.175Z,16.24
2022-10-10T04:29:43.822Z,16.29
2022-10-10T04:32:12.071Z,16.27
2022-10-10T04:34:40.336Z,16.29
2022-10-10T04:37:08.517Z,16.29
2022-10-10T04:39:36.776Z,16.27
2022-10-10T04:42:05.285Z,16.25
2022-10-10T04:44:33.582Z,16.23
2022-10-10T04:47:03.249Z,16.18
2022-10-10T04:49:31.566Z,16.15
2022-10-10T04:52:00.181Z,16.11
2022-10-10T04:54:28.661Z,16.08
2022-10-10T04:56:56.944Z,16.04
2022-10-10T04:59:25.323Z,16.03
2022-10-10T05:01:57.062Z,16.06
2022-10-10T05:04:29.062Z,16.02
2022-10-10T05:06:57.331Z,15.96
2022-10-10T05:09:25.740Z,15.92
2022-10-10T05:11:54.133Z,15.88
2022-10-10T05:14:22.362Z,15.86
2022-10-10T05:16:50.995Z,15.87
2022-10-10T05:19:19.289Z,15.90
2022-10-10T05:21:49.044Z,15.91
2022-10-10T05:24:17.311Z,15.90
2022-10-10T05:26:45.811Z,15.85
2022-10-10T05:29:14.167Z,15.78
2022-10-10T05:31:42.448Z,15.73
2022-10-10T05:34:13.878Z,15.67
2022-10-10T05:36:42.414Z,15.62
2022-10-10T05:39:12.273Z,15.61
2022-10-10T05:41:40.516Z,15.59
2022-10-10T05:44:09.377Z,15.59
2022-10-10T05:46:37.567Z,15.54
2022-10-10T05:49:05.893Z,15.47
2022-10-10T05:51:34.259Z,15.42
2022-10-10T05:54:02.598Z,15.38
2022-10-10T05:56:32.211Z,15.33
2022-10-10T05:59:00.580Z,15.27
2022-10-10T06:01:28.960Z,15.24
2022-10-10T06:03:57.199Z,15.20
2022-10-10T06:06:26.760Z,15.20
2022-10-10T06:08:55.933Z,15.20
2022-10-10T06:11:26.023Z,15.16
2022-10-10T06:13:55.830Z,15.16
2022-10-10T06:16:24.782Z,15.16
2022-10-10T06:18:53.140Z,15.16
2022-10-10T06:21:21.583Z,15.17
2022-10-10T06:23:50.243Z,15.23
2022-10-10T06:26:19.346Z,15.27
2022-10-10T06:28:47.801Z,15.29
2022-10-10T06:31:18.012Z,15.32
2022-10-10T06:33:48.183Z,15.35
2022-10-10T06:36:17.708Z,15.36
2022-10-10T06:38:47.180Z,15.34
2022-10-10T06:41:15.418Z,15.33
2022-10-10T06:43:43.630Z,15.32
2022-10-10T06:46:11.952Z,15.33
2022-10-10T06:48:42.161Z,15.34
2022-10-10T06:51:14.840Z,15.34
2022-10-10T06:53:43.596Z,15.39
2022-10-10T06:56:17.506Z,15.46
2022-10-10T06:58:46.242Z,15.54
2022-10-10T07:01:14.688Z,15.60
2022-10-10T07:03:44.487Z,15.65
2022-10-10T07:06:13.688Z,15.66
2022-10-10T07:08:42.152Z,15.65
2022-10-10T07:11:10.622Z,15.77
2022-10-10T07:13:39.302Z,15.81
2022-10-10T07:16:08.230Z,15.83
2022-10-10T07:18:37.810Z,15.80
2022-10-10T07:21:07.943Z,15.96
2022-10-10T07:23:37.058Z,16.02
2022-10-10T07:26:08.141Z,16.12
2022-10-10T07:28:36.481Z,16.21
2022-10-10T07:31:06.655Z,16.36
2022-10-10T07:33:36.967Z,16.68
2022-10-10T07:36:08.147Z,17.03
2022-10-10T07:38:37.067Z,17.43
2022-10-10T07:41:14.976Z,17.82
2022-10-10T07:43:43.310Z,17.95
2022-10-10T07:46:17.020Z,18.03
2022-10-10T07:48:45.421Z,18.02
2022-10-10T07:51:15.651Z,18.01
2022-10-10T07:53:44.399Z,17.99
2022-10-10T07:56:12.926Z,17.98
2022-10-10T07:58:41.297Z,17.98
2022-10-10T08:01:12.013Z,17.95
2022-10-10T08:03:41.191Z,17.91
2022-10-10T08:06:11.434Z,17.90
2022-10-10T08:08:50.508Z,17.82
2022-10-10T08:11:21.579Z,17.77
2022-10-10T08:13:50.494Z,17.89
2022-10-10T08:16:19.158Z,17.91
2022-10-10T08:18:47.411Z,17.94
2022-10-10T08:21:16.960Z,17.98
2022-10-10T08:23:46.871Z,17.76
2022-10-10T08:26:17.870Z,18.06
2022-10-10T08:28:48.640Z,18.10
2022-10-10T08:31:20.227Z,17.97
2022-10-10T08:33:50.750Z,18.17
2022-10-10T08:36:21.403Z,18.24
2022-10-10T08:38:52.775Z,18.27
2022-10-10T08:41:35.919Z,18.24
2022-10-10T08:44:12.910Z,18.34
2022-10-10T08:46:46.000Z,18.37
2022-10-10T08:49:21.210Z,18.44
2022-10-10T08:51:59.886Z,18.46
2022-10-10T08:54:31.058Z,18.40
2022-10-10T08:57:02.300Z,18.49
2022-10-10T08:59:34.694Z,18.54
2022-10-10T09:02:38.289Z,18.64
2022-10-10T09:05:21.774Z,18.66
2022-10-10T09:08:26.334Z,18.69
2022-10-10T09:11:01.057Z,18.73
2022-10-10T09:13:35.135Z,18.62
2022-10-10T09:16:07.370Z,18.89
2022-10-10T09:18:53.392Z,19.01
2022-10-10T09:21:25.558Z,19.02
2022-10-10T09:24:01.526Z,19.13
2022-10-10T09:26:36.999Z,19.23
2022-10-10T09:29:16.374Z,19.35
2022-10-10T09:31:49.586Z,19.46
2022-10-10T09:34:24.203Z,19.57
2022-10-10T09:36:57.225Z,19.67
2022-10-10T09:39:38.821Z,19.71
2022-10-10T09:42:13.138Z,19.69
2022-10-10T09:44:43.007Z,19.66
2022-10-10T09:47:14.050Z,19.67
2022-10-10T09:49:42.877Z,19.73
2022-10-10T09:52:27.345Z,19.81
2022-10-10T09:55:00.978Z,19.70
2022-10-10T09:57:36.788Z,19.88
2022-10-10T10:00:33.756Z,19.92
2022-10-10T10:03:13.862Z,19.98
2022-10-10T10:05:44.980Z,20.03
2022-10-10T10:08:27.433Z,20.09
2022-10-10T10:10:58.741Z,20.13
2022-10-10T10:13:31.722Z,20.16
2022-10-10T10:16:06.507Z,20.05
2022-10-10T10:18:41.592Z,19.91
2022-10-10T10:21:19.383Z,20.27
2022-10-10T10:23:56.731Z,20.26
2022-10-10T10:26:28.694Z,20.17
2022-10-10T10:28:59.495Z,20.42
2022-10-10T10:31:54.911Z,20.59
2022-10-10T10:34:38.536Z,20.66
2022-10-10T10:37:17.877Z,20.73
2022-10-10T10:40:09.307Z,20.85
2022-10-10T10:42:51.033Z,20.96
2022-10-10T10:45:26.962Z,21.03
2022-10-10T10:48:02.080Z,21.09
2022-10-10T10:50:44.308Z,21.17
2022-10-10T10:53:23.434Z,21.26
2022-10-10T10:56:01.537Z,21.40
2022-10-10T10:59:10.719Z,21.50
2022-10-10T11:01:56.065Z,21.47
2022-10-10T11:05:23.001Z,21.60
2022-10-10T11:07:49.574Z,21.85
2022-10-10T11:10:29.726Z,21.96
2022-10-10T11:13:04.717Z,21.86
2022-10-10T11:16:04.874Z,21.76
2022-10-10T11:18:34.004Z,21.63
2022-10-10T11:21:08.265Z,21.49
2022-10-10T11:23:42.756Z,21.41
2022-10-10T11:26:19.395Z,21.33
2022-10-10T11:28:52.953Z,20.96
2022-10-10T11:31:26.855Z,21.16
2022-10-10T11:34:02.392Z,21.27
2022-10-10T11:36:33.294Z,21.35
2022-10-10T11:39:05.728Z,21.41
2022-10-10T11:41:37.613Z,21.47
2022-10-10T11:44:11.615Z,21.55
2022-10-10T11:46:44.692Z,21.62
2022-10-10T11:49:22.585Z,21.78
2022-10-10T11:52:32.999Z,21.84
2022-10-10T11:55:07.587Z,21.81
2022-10-10T11:57:41.687Z,21.79
2022-10-10T12:00:14.850Z,21.74
2022-10-10T12:02:44.934Z,21.37
2022-10-10T12:05:24.007Z,21.53
2022-10-10T12:08:05.743Z,21.50
2022-10-10T12:10:38.918Z,21.54
2022-10-10T12:13:29.431Z,21.70
2022-10-10T12:16:02.987Z,21.81
2022-10-10T12:18:39.671Z,21.91
2022-10-10T12:21:11.582Z,21.87
2022-10-10T12:23:43.041Z,21.80
2022-10-10T12:26:18.653Z,21.75
2022-10-10T12:29:03.253Z,21.73
2022-10-10T12:31:38.587Z,21.69
2022-10-10T12:34:17.939Z,21.43
2022-10-10T12:37:22.265Z,21.67
2022-10-10T12:40:23.435Z,21.63
2022-10-10T12:43:16.998Z,21.77
2022-10-10T12:46:08.182Z,21.36
2022-10-10T12:48:37.355Z,22.12
2022-10-10T12:51:06.151Z,22.25
2022-10-10T12:53:35.718Z,22.36
2022-10-10T12:56:05.672Z,22.42
2022-10-10T12:58:38.724Z,22.50
2022-10-10T13:01:10.966Z,22.54
2022-10-10T13:03:43.895Z,22.40
2022-10-10T13:06:35.520Z,22.37
2022-10-10T13:09:09.192Z,22.58
2022-10-10T13:11:57.512Z,22.64
2022-10-10T13:14:27.699Z,22.66
2022-10-10T13:16:56.106Z,22.75
2022-10-10T13:19:25.802Z,22.75
2022-10-10T13:21:56.178Z,22.45
2022-10-10T13:24:30.037Z,22.61
2022-10-10T13:27:00.080Z,22.51
2022-10-10T13:29:32.571Z,22.24
2022-10-10T13:32:03.466Z,22.56
2022-10-10T13:34:35.448Z,22.61
2022-10-10T13:37:06.439Z,22.59
2022-10-10T13:39:38.411Z,22.54
2022-10-10T13:42:12.656Z,22.47
2022-10-10T13:44:52.960Z,22.46
2022-10-10T13:47:54.410Z,22.50
2022-10-10T13:50:26.875Z,22.57
2022-10-10T13:53:24.431Z,22.66
2022-10-10T13:55:59.735Z,22.73
2022-10-10T13:58:31.971Z,22.81
2022-10-10T14:01:03.482Z,22.83
2022-10-10T14:03:34.233Z,22.85
2022-10-10T14:06:02.646Z,22.87
2022-10-10T14:08:34.828Z,22.94
2022-10-10T14:11:06.968Z,22.95
2022-10-10T14:13:39.469Z,22.91
2022-10-10T14:16:13.290Z,23.00
2022-10-10T14:18:41.658Z,23.01
2022-10-10T14:21:11.091Z,23.04
2022-10-10T14:23:39.792Z,23.04
2022-10-10T14:26:12.872Z,23.04
2022-10-10T14:28:42.870Z,23.00
2022-10-10T14:31:11.414Z,23.03
2022-10-10T14:33:39.987Z,23.04
2022-10-10T14:36:08.521Z,23.03
2022-10-10T14:38:36.714Z,23.00
2022-10-10T14:41:05.477Z,22.98
2022-10-10T14:43:34.127Z,22.96
2022-10-10T14:46:03.848Z,22.94
2022-10-10T14:48:32.141Z,22.90
2022-10-10T14:51:00.699Z,22.90
2022-10-10T14:54:12.226Z,22.82
2022-10-10T14:57:06.857Z,22.83
2022-10-10T14:59:47.260Z,22.80
2022-10-10T15:02:14.825Z,22.76
2022-10-10T15:04:43.026Z,22.67
2022-10-10T15:07:14.288Z,22.67
2022-10-10T15:10:02.492Z,22.64
2022-10-10T15:12:32.863Z,22.53
2022-10-10T15:15:01.159Z,22.53
2022-10-10T15:17:33.838Z,22.50
2022-10-10T15:20:02.254Z,22.45
2022-10-10T15:22:31.139Z,22.42
2022-10-10T15:24:59.562Z,22.38
2022-10-10T15:27:28.647Z,22.33
2022-10-10T15:29:57.115Z,22.30
2022-10-10T15:32:25.578Z,22.25
2022-10-10T15:34:55.388Z,22.21
2022-10-10T15:37:25.854Z,22.15
2022-10-10T15:39:54.394Z,22.11
2022-10-10T15:45:11.943Z,21.93
2022-10-10T15:47:46.218Z,21.88
2022-10-10T15:50:16.356Z,21.84
2022-10-10T15:52:44.855Z,21.81
2022-10-10T15:55:13.254Z,21.77
2022-10-10T15:57:41.532Z,21.73
2022-10-10T15:59:17.722Z,22.04
2022-10-10T16:00:10.450Z,21.67
2022-10-10T16:02:41.488Z,21.61
2022-10-10T16:05:11.359Z,21.58
2022-10-10T16:07:47.572Z,21.52
2022-10-10T16:10:17.055Z,21.43
2022-10-10T16:12:45.280Z,21.36
2022-10-10T16:15:13.886Z,21.30
2022-10-10T16:17:42.141Z,21.26
2022-10-10T16:20:11.315Z,21.19
2022-10-10T16:22:40.973Z,21.14
2022-10-10T16:25:21.843Z,21.10
2022-10-10T16:27:51.979Z,21.02
2022-10-10T16:30:21.136Z,20.95
2022-10-10T16:32:49.653Z,20.90
2022-10-10T16:35:17.958Z,20.81
2022-10-10T16:37:47.653Z,20.73
2022-10-10T16:40:15.934Z,20.65
2022-10-10T16:42:44.241Z,20.58
2022-10-10T16:45:12.884Z,20.52
2022-10-10T16:47:41.106Z,20.45
2022-10-10T16:50:10.185Z,20.39
2022-10-10T16:52:38.648Z,20.28
2022-10-10T16:55:11.318Z,20.20
2022-10-10T16:57:41.131Z,19.81
2022-10-10T17:00:10.884Z,19.99
2022-10-10T17:02:42.402Z,19.89
2022-10-10T17:05:11.047Z,19.81
2022-10-10T17:07:39.301Z,19.78
2022-10-10T17:10:10.180Z,19.68
2022-10-10T17:12:38.521Z,19.55
2022-10-10T17:15:07.728Z,19.48
2022-10-10T17:17:36.836Z,19.42
2022-10-10T17:20:06.685Z,19.36
2022-10-10T17:22:35.298Z,19.30
2022-10-10T17:25:03.676Z,19.28
2022-10-10T17:27:35.162Z,19.23
2022-10-10T17:30:03.467Z,19.11
2022-10-10T17:32:31.695Z,19.03
2022-10-10T17:34:59.998Z,18.92
2022-10-10T17:37:28.553Z,18.82
2022-10-10T17:39:56.973Z,18.75
2022-10-10T17:42:25.221Z,18.66
2022-10-10T17:44:56.909Z,18.56
2022-10-10T17:47:25.244Z,18.44
2022-10-10T17:49:53.500Z,18.40
2022-10-10T17:52:21.979Z,18.36
2022-10-10T17:54:50.610Z,18.26
2022-10-10T17:57:19.131Z,18.17
2022-10-10T17:59:47.328Z,18.10
2022-10-10T18:02:18.911Z,18.07
2022-10-10T18:04:47.771Z,17.98
2022-10-10T18:07:16.364Z,17.95
2022-10-10T18:09:44.718Z,17.93
2022-10-10T18:12:13.317Z,17.90
2022-10-10T18:14:41.620Z,17.91
2022-10-10T18:17:10.006Z,17.83
2022-10-10T18:19:39.906Z,17.76
2022-10-10T18:22:08.350Z,17.71
2022-10-10T18:24:36.791Z,17.67
2022-10-10T18:27:05.179Z,17.56
2022-10-10T18:29:33.445Z,17.49
2022-10-10T18:32:01.791Z,17.42
2022-10-10T18:34:30.022Z,17.33
2022-10-10T18:36:59.767Z,17.25
2022-10-10T18:39:32.928Z,17.22
2022-10-10T18:42:01.575Z,17.21
2022-10-10T18:44:29.755Z,17.15
2022-10-10T18:46:58.413Z,17.09
2022-10-10T18:49:26.601Z,17.05
2022-10-10T18:51:55.077Z,16.95
2022-10-10T18:54:27.241Z,16.86
2022-10-10T18:56:55.566Z,16.83
2022-10-10T18:59:23.895Z,16.82
2022-10-10T19:01:53.464Z,16.73
2022-10-10T19:04:22.305Z,16.71
2022-10-10T19:06:56.161Z,16.67
2022-10-10T19:09:27.416Z,16.69
2022-10-10T19:11:55.710Z,16.72
2022-10-10T19:14:23.961Z,16.70
2022-10-10T19:16:53.364Z,16.66
2022-10-10T19:19:22.112Z,16.65
2022-10-10T19:21:51.630Z,16.54
2022-10-10T19:24:21.485Z,16.42
2022-10-10T19:26:54.957Z,16.37
2022-10-10T19:29:23.813Z,16.33
2022-10-10T19:31:52.983Z,16.30
2022-10-10T19:34:21.378Z,16.25
2022-10-10T19:36:49.672Z,16.19
2022-10-10T19:39:17.976Z,16.13
2022-10-10T19:41:46.235Z,16.11
2022-10-10T19:44:15.913Z,16.13
2022-10-10T19:46:44.121Z,16.09
2022-10-10T19:49:12.859Z,16.07
2022-10-10T19:51:41.022Z,16.00
2022-10-10T19:54:09.332Z,15.91
2022-10-10T19:56:37.497Z,15.81
2022-10-10T19:59:06.023Z,15.64
2022-10-10T20:01:35.742Z,15.85
2022-10-10T20:04:04.158Z,15.82
2022-10-10T20:06:32.470Z,15.74
2022-10-10T20:09:00.718Z,15.55
2022-10-10T20:11:29.185Z,15.63
2022-10-10T20:13:58.438Z,15.62
2022-10-10T20:16:27.812Z,15.62
2022-10-10T20:18:59.662Z,15.56
2022-10-10T20:21:31.781Z,15.50
2022-10-10T20:24:03.841Z,15.29
2022-10-10T20:26:32.702Z,15.39
2022-10-10T20:29:01.544Z,14.67
2022-10-10T20:31:32.639Z,15.14
2022-10-10T20:34:07.577Z,15.29
2022-10-10T20:36:39.353Z,15.30
2022-10-10T20:39:10.787Z,15.33
2022-10-10T20:41:43.119Z,15.12
2022-10-10T20:44:14.633Z,15.18
2022-10-10T20:46:44.932Z,15.16
2022-10-10T20:49:17.628Z,15.18
2022-10-10T20:51:48.899Z,15.15
2022-10-10T20:54:18.947Z,15.12
2022-10-10T20:56:49.387Z,15.12
2022-10-10T20:59:18.625Z,15.09
2022-10-10T21:01:47.516Z,15.00
2022-10-10T21:04:17.934Z,14.95
2022-10-10T21:06:46.801Z,14.90
2022-10-10T21:09:16.602Z,14.86
2022-10-10T21:11:48.664Z,14.81
2022-10-10T21:14:19.689Z,14.80
2022-10-10T21:16:50.723Z,14.77
2022-10-10T21:19:22.106Z,14.78
2022-10-10T21:21:50.869Z,14.71
2022-10-10T21:24:19.725Z,14.68
2022-10-10T21:26:50.599Z,14.68
2022-10-10T21:29:19.811Z,14.65
2022-10-10T21:31:48.502Z,14.64
2022-10-10T21:34:19.184Z,14.59
2022-10-10T21:36:49.597Z,14.59
2022-10-10T21:39:18.432Z,14.54
2022-10-10T21:41:47.438Z,14.49
2022-10-10T21:44:16.929Z,14.47
2022-10-10T21:46:45.726Z,14.45
2022-10-10T21:49:14.599Z,14.44
2022-10-10T21:51:45.759Z,14.47
2022-10-10T21:54:16.498Z,14.46
2022-10-10T21:56:45.383Z,14.47
2022-10-10T21:59:14.388Z,14.45
2022-10-10T22:01:44.698Z,14.44
2022-10-10T22:04:13.466Z,14.45
2022-10-10T22:06:42.952Z,14.48
2022-10-10T22:09:11.663Z,14.48
2022-10-10T22:11:41.948Z,14.45
2022-10-10T22:14:10.702Z,14.39
2022-10-10T22:16:39.351Z,14.39
2022-10-10T22:19:08.733Z,14.40
2022-10-10T22:21:38.299Z,14.43
2022-10-10T22:24:09.140Z,14.26
2022-10-10T22:26:38.695Z,14.43
2022-10-10T22:29:09.780Z,14.37
2022-10-10T22:31:38.659Z,14.35
2022-10-10T22:34:08.286Z,14.33
2022-10-10T22:36:37.152Z,14.30
2022-10-10T22:39:07.468Z,14.29
2022-10-10T22:41:36.278Z,14.28
2022-10-10T22:44:05.410Z,14.24
2022-10-10T22:46:35.678Z,14.23
2022-10-10T22:49:04.545Z,14.20
2022-10-10T22:51:33.413Z,14.17
2022-10-10T22:54:02.176Z,14.16
2022-10-10T22:56:30.915Z,14.17
2022-10-10T22:58:59.925Z,14.21
2022-10-10T23:01:28.698Z,14.22
2022-10-10T23:04:03.611Z,14.04
2022-10-10T23:06:32.306Z,14.19
2022-10-10T23:09:01.049Z,14.22
2022-10-10T23:11:29.813Z,14.22
2022-10-10T23:13:58.545Z,14.24
2022-10-10T23:16:27.281Z,14.27
2022-10-10T23:18:56.067Z,14.29
2022-10-10T23:21:26.288Z,14.33
2022-10-10T23:23:56.190Z,14.34
2022-10-10T23:26:24.859Z,14.33
2022-10-10T23:28:53.772Z,14.33
2022-10-10T23:31:22.584Z,14.30
2022-10-10T23:33:51.386Z,14.24
2022-10-10T23:36:20.139Z,14.23
2022-10-10T23:38:51.456Z,14.20
2022-10-10T23:41:20.410Z,13.94
2022-10-10T23:43:49.293Z,14.14
2022-10-10T23:46:18.064Z,14.09
2022-10-10T23:48:49.019Z,14.07
2022-10-10T23:51:18.227Z,14.06
2022-10-10T23:53:47.015Z,13.99
2022-10-10T23:56:17.209Z,13.97
2022-10-10T23:58:45.981Z,13.92
